SAS841 ENGM-LSZH
Flight info
| Callsign | SAS841 |
|---|---|
| Flight time | 2h 8m |
| Altitude | 37000 |
| Route | VIPPA DCT AMRAK DCT SWALM DCT OMOGI T721 RILAX |
| Aircraft | A20N/M-SDE2E3FGHIRWXY/LB1 |
Departure
| Time | 2026-05-05 16:49 |
|---|---|
| Airport | Oslo-Gardermoen International Airport (ENGM) |
Arrival
| Time | 2026-05-05 18:58 |
|---|---|
| Airport | Zürich Airport (LSZH) |
| Time | Latitude | Longitude | Altitude | Speed | Heading |
|---|---|---|---|---|---|
| 2026-05-05 16:14 | 60.19521 | 11.10142 | 681 ft | 0 kts | 264° |
| 2026-05-05 16:34 | 60.19521 | 11.10155 | 681 ft | 2 kts | 263° |
| 2026-05-05 16:34 | 60.19524 | 11.10195 | 678 ft | 3 kts | 259° |
| 2026-05-05 16:34 | 60.19528 | 11.10235 | 679 ft | 3 kts | 254° |
| 2026-05-05 16:35 | 60.19534 | 11.10273 | 678 ft | 3 kts | 249° |
| 2026-05-05 16:35 | 60.19542 | 11.10311 | 677 ft | 3 kts | 244° |
| 2026-05-05 16:35 | 60.19552 | 11.10346 | 674 ft | 3 kts | 236° |
| 2026-05-05 16:35 | 60.19564 | 11.10378 | 677 ft | 3 kts | 220° |
| 2026-05-05 16:36 | 60.19577 | 11.10396 | 680 ft | 1 kts | 196° |
| 2026-05-05 16:36 | 60.19578 | 11.10397 | 680 ft | 0 kts | 195° |
| 2026-05-05 16:40 | 60.19561 | 11.10393 | 681 ft | 5 kts | 178° |
| 2026-05-05 16:40 | 60.19529 | 11.10477 | 681 ft | 12 kts | 108° |
| 2026-05-05 16:41 | 60.19498 | 11.10683 | 682 ft | 18 kts | 107° |
| 2026-05-05 16:41 | 60.19466 | 11.10910 | 680 ft | 16 kts | 106° |
| 2026-05-05 16:41 | 60.19433 | 11.11137 | 678 ft | 12 kts | 106° |
| 2026-05-05 16:41 | 60.19380 | 11.11255 | 683 ft | 13 kts | 180° |
| 2026-05-05 16:42 | 60.19284 | 11.11204 | 683 ft | 15 kts | 196° |
| 2026-05-05 16:42 | 60.19175 | 11.11142 | 679 ft | 17 kts | 196° |
| 2026-05-05 16:42 | 60.19062 | 11.11076 | 679 ft | 17 kts | 197° |
| 2026-05-05 16:42 | 60.18940 | 11.11007 | 681 ft | 20 kts | 196° |
| 2026-05-05 16:43 | 60.18797 | 11.10919 | 680 ft | 23 kts | 198° |
| 2026-05-05 16:43 | 60.18643 | 11.10824 | 681 ft | 24 kts | 195° |
| 2026-05-05 16:43 | 60.18483 | 11.10736 | 679 ft | 24 kts | 195° |
| 2026-05-05 16:43 | 60.18316 | 11.10645 | 681 ft | 25 kts | 195° |
| 2026-05-05 16:44 | 60.18155 | 11.10553 | 679 ft | 23 kts | 196° |
| 2026-05-05 16:44 | 60.18000 | 11.10462 | 679 ft | 23 kts | 197° |
| 2026-05-05 16:44 | 60.17846 | 11.10363 | 679 ft | 24 kts | 196° |
| 2026-05-05 16:44 | 60.17729 | 11.10310 | 680 ft | 12 kts | 197° |
| 2026-05-05 16:45 | 60.17650 | 11.10335 | 679 ft | 13 kts | 116° |
| 2026-05-05 16:45 | 60.17640 | 11.10419 | 679 ft | 0 kts | 110° |
| 2026-05-05 16:45 | 60.17640 | 11.10420 | 679 ft | 1 kts | 110° |
| 2026-05-05 16:45 | 60.17632 | 11.10469 | 677 ft | 7 kts | 105° |
| 2026-05-05 16:46 | 60.17615 | 11.10587 | 678 ft | 11 kts | 106° |
| 2026-05-05 16:46 | 60.17613 | 11.10598 | 679 ft | 0 kts | 106° |
| 2026-05-05 16:47 | 60.17610 | 11.10619 | 679 ft | 5 kts | 105° |
| 2026-05-05 16:47 | 60.17607 | 11.10729 | 679 ft | 10 kts | 77° |
| 2026-05-05 16:47 | 60.17656 | 11.10825 | 679 ft | 0 kts | 21° |
| 2026-05-05 16:48 | 60.17656 | 11.10826 | 679 ft | 1 kts | 21° |
| 2026-05-05 16:49 | 60.17770 | 11.10890 | 678 ft | 48 kts | 15° |
| 2026-05-05 16:49 | 60.18321 | 11.11207 | 679 ft | 114 kts | 16° |
| 2026-05-05 16:49 | 60.19250 | 11.11731 | 730 ft | 158 kts | 13° |
| 2026-05-05 16:49 | 60.20316 | 11.12330 | 1327 ft | 161 kts | 13° |
| 2026-05-05 16:50 | 60.21286 | 11.13435 | 2171 ft | 168 kts | 50° |
| 2026-05-05 16:50 | 60.21669 | 11.15752 | 2653 ft | 188 kts | 81° |
| 2026-05-05 16:50 | 60.21827 | 11.18494 | 3033 ft | 207 kts | 81° |
| 2026-05-05 16:50 | 60.21953 | 11.20461 | 3299 ft | 221 kts | 80° |
| 2026-05-05 16:51 | 60.22246 | 11.24822 | 3912 ft | 249 kts | 79° |
| 2026-05-05 16:51 | 60.22360 | 11.27146 | 4429 ft | 255 kts | 90° |
| 2026-05-05 16:51 | 60.21578 | 11.31550 | 5756 ft | 257 kts | 130° |
| 2026-05-05 16:51 | 60.20175 | 11.33775 | 6530 ft | 261 kts | 158° |
| 2026-05-05 16:52 | 60.18401 | 11.34878 | 7016 ft | 276 kts | 172° |
| 2026-05-05 16:52 | 60.16490 | 11.35402 | 7942 ft | 276 kts | 184° |
| 2026-05-05 16:52 | 60.14624 | 11.34715 | 8987 ft | 273 kts | 204° |
| 2026-05-05 16:52 | 60.12960 | 11.32934 | 9980 ft | 272 kts | 213° |
| 2026-05-05 16:53 | 60.11268 | 11.30967 | 10531 ft | 292 kts | 213° |
| 2026-05-05 16:53 | 60.10039 | 11.29582 | 10778 ft | 307 kts | 212° |
| 2026-05-05 16:53 | 60.08103 | 11.27441 | 11220 ft | 325 kts | 211° |
| 2026-05-05 16:53 | 60.06101 | 11.25265 | 12058 ft | 329 kts | 212° |
| 2026-05-05 16:54 | 60.04094 | 11.23095 | 12926 ft | 333 kts | 212° |
| 2026-05-05 16:54 | 60.02042 | 11.20878 | 13774 ft | 338 kts | 212° |
| 2026-05-05 16:54 | 59.99925 | 11.18794 | 14620 ft | 339 kts | 210° |
| 2026-05-05 16:54 | 59.97787 | 11.16793 | 15521 ft | 338 kts | 211° |
| 2026-05-05 16:55 | 59.95653 | 11.14816 | 16409 ft | 338 kts | 212° |
| 2026-05-05 16:55 | 59.93513 | 11.12828 | 17261 ft | 340 kts | 212° |
| 2026-05-05 16:55 | 59.91368 | 11.10830 | 18094 ft | 341 kts | 213° |
| 2026-05-05 16:55 | 59.89212 | 11.08821 | 18771 ft | 342 kts | 214° |
| 2026-05-05 16:56 | 59.87054 | 11.06818 | 19460 ft | 343 kts | 214° |
| 2026-05-05 16:56 | 59.84885 | 11.04800 | 20112 ft | 345 kts | 215° |
| 2026-05-05 16:56 | 59.82708 | 11.02770 | 20828 ft | 346 kts | 216° |
| 2026-05-05 16:56 | 59.80521 | 11.00738 | 21503 ft | 348 kts | 216° |
| 2026-05-05 16:57 | 59.78316 | 10.98696 | 22185 ft | 350 kts | 216° |
| 2026-05-05 16:57 | 59.76104 | 10.96651 | 22846 ft | 352 kts | 217° |
| 2026-05-05 16:57 | 59.73875 | 10.94599 | 23471 ft | 354 kts | 217° |
| 2026-05-05 16:57 | 59.71629 | 10.92527 | 23915 ft | 357 kts | 217° |
| 2026-05-05 16:58 | 59.69349 | 10.90406 | 24229 ft | 366 kts | 216° |
| 2026-05-05 16:58 | 59.67036 | 10.88266 | 24739 ft | 368 kts | 216° |
| 2026-05-05 16:58 | 59.64736 | 10.86151 | 25223 ft | 370 kts | 215° |
| 2026-05-05 16:58 | 59.62358 | 10.83969 | 25701 ft | 374 kts | 215° |
| 2026-05-05 16:59 | 59.60018 | 10.81826 | 26139 ft | 377 kts | 215° |
| 2026-05-05 16:59 | 59.57634 | 10.79646 | 26617 ft | 379 kts | 215° |
| 2026-05-05 16:59 | 59.55230 | 10.77446 | 27029 ft | 382 kts | 215° |
| 2026-05-05 16:59 | 59.52806 | 10.75231 | 27467 ft | 385 kts | 214° |
| 2026-05-05 17:00 | 59.50372 | 10.73012 | 27877 ft | 387 kts | 214° |
| 2026-05-05 17:00 | 59.47914 | 10.70776 | 28273 ft | 390 kts | 214° |
| 2026-05-05 17:00 | 59.45440 | 10.68530 | 28682 ft | 393 kts | 214° |
| 2026-05-05 17:00 | 59.42947 | 10.66266 | 28965 ft | 395 kts | 213° |
| 2026-05-05 17:01 | 59.40443 | 10.63993 | 29339 ft | 398 kts | 213° |
| 2026-05-05 17:01 | 59.37916 | 10.61706 | 29695 ft | 400 kts | 213° |
| 2026-05-05 17:01 | 59.35379 | 10.59416 | 30049 ft | 403 kts | 213° |
| 2026-05-05 17:01 | 59.32825 | 10.57116 | 30351 ft | 405 kts | 213° |
| 2026-05-05 17:02 | 59.30256 | 10.54808 | 30737 ft | 408 kts | 213° |
| 2026-05-05 17:02 | 59.27667 | 10.52485 | 31035 ft | 410 kts | 213° |
| 2026-05-05 17:02 | 59.25071 | 10.50162 | 31382 ft | 411 kts | 213° |
| 2026-05-05 17:02 | 59.22470 | 10.47840 | 31766 ft | 410 kts | 213° |
| 2026-05-05 17:03 | 59.19876 | 10.45527 | 32156 ft | 410 kts | 213° |
| 2026-05-05 17:03 | 59.17280 | 10.43215 | 32475 ft | 410 kts | 213° |
| 2026-05-05 17:03 | 59.14708 | 10.40926 | 32761 ft | 412 kts | 212° |
| 2026-05-05 17:03 | 59.12099 | 10.38607 | 33123 ft | 411 kts | 212° |
| 2026-05-05 17:04 | 59.09465 | 10.36270 | 33495 ft | 411 kts | 212° |
| 2026-05-05 17:04 | 59.06863 | 10.33970 | 33845 ft | 411 kts | 212° |
| 2026-05-05 17:04 | 59.04295 | 10.31702 | 34112 ft | 411 kts | 212° |
| 2026-05-05 17:04 | 59.01655 | 10.29373 | 34357 ft | 412 kts | 212° |
| 2026-05-05 17:05 | 58.99078 | 10.27103 | 34586 ft | 412 kts | 212° |
| 2026-05-05 17:05 | 58.96408 | 10.25001 | 34818 ft | 418 kts | 206° |
| 2026-05-05 17:05 | 58.93586 | 10.23405 | 35043 ft | 425 kts | 201° |
| 2026-05-05 17:05 | 58.90653 | 10.22382 | 35219 ft | 432 kts | 194° |
| 2026-05-05 17:06 | 58.87663 | 10.21924 | 35464 ft | 436 kts | 191° |
| 2026-05-05 17:06 | 58.84638 | 10.21575 | 35695 ft | 436 kts | 191° |
| 2026-05-05 17:06 | 58.81611 | 10.21211 | 35922 ft | 436 kts | 191° |
| 2026-05-05 17:06 | 58.78578 | 10.20833 | 36147 ft | 436 kts | 191° |
| 2026-05-05 17:07 | 58.75552 | 10.20447 | 36363 ft | 436 kts | 191° |
| 2026-05-05 17:07 | 58.72524 | 10.20058 | 36594 ft | 436 kts | 191° |
| 2026-05-05 17:07 | 58.69536 | 10.19673 | 36784 ft | 436 kts | 191° |
| 2026-05-05 17:07 | 58.66506 | 10.19284 | 36917 ft | 437 kts | 191° |
| 2026-05-05 17:08 | 58.60453 | 10.18513 | 36931 ft | 435 kts | 191° |
| 2026-05-05 17:08 | 58.54400 | 10.17743 | 36932 ft | 435 kts | 191° |
| 2026-05-05 17:09 | 58.48352 | 10.16978 | 36929 ft | 435 kts | 191° |
| 2026-05-05 17:09 | 58.42349 | 10.16220 | 36931 ft | 435 kts | 191° |
| 2026-05-05 17:10 | 58.36311 | 10.15461 | 36939 ft | 435 kts | 191° |
| 2026-05-05 17:10 | 58.30266 | 10.14704 | 36935 ft | 435 kts | 191° |
| 2026-05-05 17:11 | 58.25015 | 10.14048 | 36939 ft | 435 kts | 191° |
| 2026-05-05 17:11 | 58.18976 | 10.13296 | 36941 ft | 435 kts | 191° |
| 2026-05-05 17:12 | 58.12916 | 10.12544 | 36947 ft | 436 kts | 191° |
| 2026-05-05 17:12 | 58.06865 | 10.11796 | 36914 ft | 435 kts | 191° |
| 2026-05-05 17:13 | 58.00827 | 10.11052 | 36947 ft | 435 kts | 191° |
| 2026-05-05 17:13 | 57.94790 | 10.10310 | 36951 ft | 435 kts | 191° |
| 2026-05-05 17:14 | 57.88792 | 10.09576 | 36949 ft | 435 kts | 191° |
| 2026-05-05 17:14 | 57.82745 | 10.08838 | 36955 ft | 435 kts | 191° |
| 2026-05-05 17:15 | 57.76695 | 10.08102 | 36952 ft | 434 kts | 190° |
| 2026-05-05 17:15 | 57.70672 | 10.07372 | 36960 ft | 434 kts | 190° |
| 2026-05-05 17:16 | 57.64652 | 10.06645 | 36961 ft | 434 kts | 190° |
| 2026-05-05 17:16 | 57.58634 | 10.05921 | 36963 ft | 434 kts | 190° |
| 2026-05-05 17:17 | 57.52606 | 10.05197 | 36956 ft | 434 kts | 190° |
| 2026-05-05 17:17 | 57.46591 | 10.04479 | 36963 ft | 433 kts | 190° |
| 2026-05-05 17:18 | 57.40577 | 10.03761 | 36974 ft | 433 kts | 190° |
| 2026-05-05 17:18 | 57.34562 | 10.03047 | 36974 ft | 433 kts | 190° |
| 2026-05-05 17:19 | 57.28583 | 10.02339 | 36973 ft | 433 kts | 190° |
| 2026-05-05 17:19 | 57.22574 | 10.01629 | 36971 ft | 432 kts | 189° |
| 2026-05-05 17:20 | 57.16582 | 10.00924 | 36971 ft | 432 kts | 189° |
| 2026-05-05 17:20 | 57.10588 | 10.00222 | 36970 ft | 432 kts | 189° |
| 2026-05-05 17:21 | 57.04590 | 9.99521 | 36971 ft | 432 kts | 189° |
| 2026-05-05 17:22 | 56.95607 | 9.98475 | 36965 ft | 431 kts | 189° |
| 2026-05-05 17:22 | 56.89625 | 9.97781 | 36962 ft | 431 kts | 189° |
| 2026-05-05 17:23 | 56.83643 | 9.97089 | 36956 ft | 431 kts | 189° |
| 2026-05-05 17:23 | 56.77650 | 9.96399 | 36964 ft | 431 kts | 189° |
| 2026-05-05 17:24 | 56.71665 | 9.95715 | 36956 ft | 431 kts | 189° |
| 2026-05-05 17:24 | 56.65683 | 9.95034 | 36958 ft | 430 kts | 189° |
| 2026-05-05 17:25 | 56.59700 | 9.94353 | 36959 ft | 430 kts | 189° |
| 2026-05-05 17:25 | 56.53770 | 9.93679 | 36956 ft | 430 kts | 189° |
| 2026-05-05 17:26 | 56.47791 | 9.93000 | 36957 ft | 430 kts | 189° |
| 2026-05-05 17:26 | 56.41807 | 9.92322 | 36948 ft | 430 kts | 189° |
| 2026-05-05 17:27 | 56.35832 | 9.91647 | 36950 ft | 430 kts | 189° |
| 2026-05-05 17:27 | 56.29852 | 9.90975 | 36946 ft | 430 kts | 189° |
| 2026-05-05 17:28 | 56.23873 | 9.90306 | 36950 ft | 431 kts | 189° |
| 2026-05-05 17:28 | 56.17883 | 9.89637 | 36920 ft | 431 kts | 189° |
| 2026-05-05 17:29 | 56.11903 | 9.88969 | 36948 ft | 430 kts | 188° |
| 2026-05-05 17:29 | 56.05925 | 9.88306 | 36948 ft | 430 kts | 188° |
| 2026-05-05 17:30 | 55.99946 | 9.87645 | 36945 ft | 430 kts | 188° |
| 2026-05-05 17:30 | 55.93972 | 9.86987 | 36946 ft | 430 kts | 188° |
| 2026-05-05 17:31 | 55.88041 | 9.86334 | 36942 ft | 430 kts | 188° |
| 2026-05-05 17:31 | 55.82075 | 9.85680 | 36939 ft | 429 kts | 188° |
| 2026-05-05 17:32 | 55.76108 | 9.85027 | 36941 ft | 429 kts | 188° |
| 2026-05-05 17:32 | 55.70141 | 9.84378 | 36935 ft | 429 kts | 188° |
| 2026-05-05 17:33 | 55.64173 | 9.83731 | 36935 ft | 429 kts | 188° |
| 2026-05-05 17:33 | 55.58218 | 9.83086 | 36932 ft | 429 kts | 188° |
| 2026-05-05 17:34 | 55.52299 | 9.82447 | 36929 ft | 429 kts | 188° |
| 2026-05-05 17:34 | 55.46341 | 9.81806 | 36928 ft | 429 kts | 188° |
| 2026-05-05 17:35 | 55.40387 | 9.81167 | 36927 ft | 429 kts | 188° |
| 2026-05-05 17:35 | 55.34437 | 9.80530 | 36922 ft | 428 kts | 188° |
| 2026-05-05 17:36 | 55.28492 | 9.79897 | 36923 ft | 428 kts | 188° |
| 2026-05-05 17:36 | 55.22536 | 9.79264 | 36930 ft | 428 kts | 188° |
| 2026-05-05 17:37 | 55.16582 | 9.78633 | 36931 ft | 428 kts | 188° |
| 2026-05-05 17:37 | 55.10629 | 9.78004 | 36938 ft | 428 kts | 188° |
| 2026-05-05 17:38 | 55.04685 | 9.77378 | 36941 ft | 428 kts | 188° |
| 2026-05-05 17:38 | 54.99737 | 9.76858 | 36942 ft | 428 kts | 188° |
| 2026-05-05 17:39 | 54.93789 | 9.76234 | 36943 ft | 428 kts | 188° |
| 2026-05-05 17:39 | 54.87837 | 9.75612 | 36943 ft | 428 kts | 188° |
| 2026-05-05 17:40 | 54.81912 | 9.74999 | 36932 ft | 425 kts | 188° |
| 2026-05-05 17:40 | 54.76029 | 9.74180 | 36918 ft | 425 kts | 190° |
| 2026-05-05 17:41 | 54.70144 | 9.73281 | 36916 ft | 424 kts | 189° |
| 2026-05-05 17:41 | 54.64253 | 9.72413 | 36912 ft | 425 kts | 189° |
| 2026-05-05 17:42 | 54.58378 | 9.71565 | 36902 ft | 422 kts | 190° |
| 2026-05-05 17:42 | 54.52567 | 9.70731 | 36911 ft | 422 kts | 190° |
| 2026-05-05 17:43 | 54.46711 | 9.69889 | 36914 ft | 422 kts | 190° |
| 2026-05-05 17:43 | 54.40853 | 9.69048 | 36912 ft | 422 kts | 190° |
| 2026-05-05 17:44 | 54.34997 | 9.68212 | 36913 ft | 421 kts | 190° |
| 2026-05-05 17:44 | 54.29161 | 9.67381 | 36912 ft | 420 kts | 190° |
| 2026-05-05 17:45 | 54.23373 | 9.66559 | 36902 ft | 419 kts | 190° |
| 2026-05-05 17:45 | 54.17569 | 9.65737 | 36895 ft | 418 kts | 190° |
| 2026-05-05 17:46 | 54.11781 | 9.64920 | 36886 ft | 417 kts | 190° |
| 2026-05-05 17:46 | 54.05998 | 9.64104 | 36883 ft | 416 kts | 189° |
| 2026-05-05 17:47 | 54.00223 | 9.63294 | 36881 ft | 416 kts | 189° |
| 2026-05-05 17:47 | 53.94448 | 9.62485 | 36880 ft | 416 kts | 189° |
| 2026-05-05 17:48 | 53.88671 | 9.61678 | 36883 ft | 416 kts | 189° |
| 2026-05-05 17:48 | 53.82890 | 9.60871 | 36888 ft | 416 kts | 189° |
| 2026-05-05 17:49 | 53.77117 | 9.60068 | 36892 ft | 416 kts | 189° |
| 2026-05-05 17:49 | 53.71375 | 9.59272 | 36892 ft | 417 kts | 189° |
| 2026-05-05 17:50 | 53.65307 | 9.58434 | 36904 ft | 417 kts | 189° |
| 2026-05-05 17:50 | 53.59790 | 9.57674 | 36899 ft | 417 kts | 189° |
| 2026-05-05 17:51 | 53.54000 | 9.56877 | 36904 ft | 418 kts | 189° |
| 2026-05-05 17:51 | 53.48200 | 9.56082 | 36907 ft | 418 kts | 189° |
| 2026-05-05 17:52 | 53.42415 | 9.55292 | 36891 ft | 419 kts | 189° |
| 2026-05-05 17:52 | 53.36602 | 9.54500 | 36893 ft | 419 kts | 189° |
| 2026-05-05 17:53 | 53.30834 | 9.53716 | 36886 ft | 419 kts | 188° |
| 2026-05-05 17:53 | 53.25021 | 9.52928 | 36883 ft | 419 kts | 188° |
| 2026-05-05 17:54 | 53.19214 | 9.52144 | 36890 ft | 419 kts | 188° |
| 2026-05-05 17:54 | 53.13406 | 9.51361 | 36884 ft | 418 kts | 188° |
| 2026-05-05 17:55 | 53.07594 | 9.50580 | 36884 ft | 418 kts | 188° |
| 2026-05-05 17:55 | 53.01794 | 9.49802 | 36882 ft | 418 kts | 188° |
| 2026-05-05 17:56 | 52.95989 | 9.49026 | 36870 ft | 418 kts | 188° |
| 2026-05-05 17:56 | 52.90189 | 9.48254 | 36865 ft | 418 kts | 188° |
| 2026-05-05 17:57 | 52.84401 | 9.47483 | 36861 ft | 417 kts | 188° |
| 2026-05-05 17:57 | 52.78621 | 9.46717 | 36856 ft | 416 kts | 188° |
| 2026-05-05 17:58 | 52.72884 | 9.45958 | 36847 ft | 416 kts | 188° |
| 2026-05-05 17:58 | 52.67106 | 9.45196 | 36847 ft | 416 kts | 188° |
| 2026-05-05 17:59 | 52.61342 | 9.44436 | 36850 ft | 415 kts | 188° |
| 2026-05-05 17:59 | 52.55575 | 9.43679 | 36849 ft | 415 kts | 188° |
| 2026-05-05 18:00 | 52.49824 | 9.42927 | 36843 ft | 415 kts | 188° |
| 2026-05-05 18:00 | 52.44057 | 9.42177 | 36851 ft | 415 kts | 188° |
| 2026-05-05 18:01 | 52.38296 | 9.41425 | 36844 ft | 416 kts | 187° |
| 2026-05-05 18:01 | 52.32535 | 9.40673 | 36854 ft | 415 kts | 187° |
| 2026-05-05 18:02 | 52.26766 | 9.39927 | 36851 ft | 416 kts | 187° |
| 2026-05-05 18:02 | 52.21034 | 9.39187 | 36848 ft | 416 kts | 187° |
| 2026-05-05 18:03 | 52.15265 | 9.38444 | 36840 ft | 416 kts | 187° |
| 2026-05-05 18:03 | 52.09508 | 9.37702 | 36822 ft | 413 kts | 187° |
| 2026-05-05 18:04 | 52.03772 | 9.36968 | 36831 ft | 414 kts | 187° |
| 2026-05-05 18:04 | 51.98024 | 9.36233 | 36818 ft | 414 kts | 187° |
| 2026-05-05 18:05 | 51.92281 | 9.35501 | 36820 ft | 414 kts | 187° |
| 2026-05-05 18:05 | 51.86530 | 9.34768 | 36814 ft | 414 kts | 186° |
| 2026-05-05 18:06 | 51.80778 | 9.34039 | 36814 ft | 415 kts | 186° |
| 2026-05-05 18:06 | 51.75022 | 9.33312 | 36815 ft | 415 kts | 186° |
| 2026-05-05 18:07 | 51.69312 | 9.32591 | 36821 ft | 415 kts | 186° |
| 2026-05-05 18:07 | 51.63570 | 9.31866 | 36813 ft | 415 kts | 186° |
| 2026-05-05 18:08 | 51.57801 | 9.31143 | 36806 ft | 416 kts | 186° |
| 2026-05-05 18:08 | 51.52034 | 9.30421 | 36805 ft | 416 kts | 186° |
| 2026-05-05 18:09 | 51.46267 | 9.29701 | 36805 ft | 416 kts | 186° |
| 2026-05-05 18:09 | 51.40500 | 9.28981 | 36805 ft | 415 kts | 186° |
| 2026-05-05 18:10 | 51.34737 | 9.28265 | 36799 ft | 415 kts | 186° |
| 2026-05-05 18:10 | 51.28975 | 9.27551 | 36800 ft | 415 kts | 186° |
| 2026-05-05 18:11 | 51.23248 | 9.26507 | 36800 ft | 414 kts | 189° |
| 2026-05-05 18:11 | 51.17538 | 9.25255 | 36803 ft | 414 kts | 188° |
| 2026-05-05 18:12 | 51.11824 | 9.24011 | 36800 ft | 414 kts | 188° |
| 2026-05-05 18:12 | 51.06124 | 9.22778 | 36800 ft | 414 kts | 188° |
| 2026-05-05 18:13 | 51.00454 | 9.21555 | 36799 ft | 414 kts | 188° |
| 2026-05-05 18:13 | 50.94740 | 9.20325 | 36799 ft | 415 kts | 188° |
| 2026-05-05 18:14 | 50.89019 | 9.19098 | 36798 ft | 415 kts | 188° |
| 2026-05-05 18:14 | 50.83284 | 9.17871 | 36797 ft | 415 kts | 188° |
| 2026-05-05 18:15 | 50.77554 | 9.16648 | 36797 ft | 415 kts | 188° |
| 2026-05-05 18:15 | 50.71862 | 9.15435 | 36798 ft | 415 kts | 188° |
| 2026-05-05 18:16 | 50.66114 | 9.14213 | 36795 ft | 414 kts | 188° |
| 2026-05-05 18:16 | 50.60458 | 9.13014 | 36791 ft | 413 kts | 188° |
| 2026-05-05 18:17 | 50.57187 | 9.12323 | 36786 ft | 413 kts | 188° |
| 2026-05-05 18:17 | 50.51488 | 9.11121 | 36784 ft | 413 kts | 188° |
| 2026-05-05 18:18 | 50.45740 | 9.09910 | 36805 ft | 418 kts | 187° |
| 2026-05-05 18:18 | 50.40023 | 9.08710 | 36810 ft | 417 kts | 187° |
| 2026-05-05 18:19 | 50.34274 | 9.07506 | 36809 ft | 417 kts | 187° |
| 2026-05-05 18:19 | 50.28516 | 9.06301 | 36810 ft | 418 kts | 187° |
| 2026-05-05 18:20 | 50.22710 | 9.05090 | 36827 ft | 422 kts | 187° |
| 2026-05-05 18:20 | 50.16908 | 9.03883 | 36814 ft | 419 kts | 187° |
| 2026-05-05 18:21 | 50.11119 | 9.02682 | 36813 ft | 420 kts | 187° |
| 2026-05-05 18:21 | 50.05330 | 9.01483 | 36814 ft | 421 kts | 187° |
| 2026-05-05 18:22 | 49.99544 | 9.00288 | 36812 ft | 421 kts | 187° |
| 2026-05-05 18:22 | 49.93724 | 8.99088 | 36816 ft | 421 kts | 187° |
| 2026-05-05 18:23 | 49.88923 | 8.98101 | 36822 ft | 421 kts | 187° |
| 2026-05-05 18:23 | 49.83113 | 8.96910 | 36814 ft | 421 kts | 187° |
| 2026-05-05 18:24 | 49.77295 | 8.95722 | 36817 ft | 421 kts | 187° |
| 2026-05-05 18:24 | 49.70529 | 8.94344 | 36818 ft | 422 kts | 187° |
| 2026-05-05 18:25 | 49.64708 | 8.93159 | 36820 ft | 422 kts | 187° |
| 2026-05-05 18:25 | 49.59826 | 8.92168 | 36821 ft | 422 kts | 187° |
| 2026-05-05 18:26 | 49.53997 | 8.90987 | 36820 ft | 423 kts | 187° |
| 2026-05-05 18:26 | 49.48201 | 8.89815 | 36823 ft | 423 kts | 187° |
| 2026-05-05 18:27 | 49.42368 | 8.88639 | 36826 ft | 423 kts | 187° |
| 2026-05-05 18:27 | 49.36520 | 8.87462 | 36829 ft | 424 kts | 187° |
| 2026-05-05 18:28 | 49.27751 | 8.85702 | 36832 ft | 424 kts | 187° |
| 2026-05-05 18:28 | 49.21909 | 8.84533 | 36718 ft | 423 kts | 187° |
| 2026-05-05 18:29 | 49.18989 | 8.83950 | 36342 ft | 424 kts | 187° |
| 2026-05-05 18:29 | 49.16053 | 8.83364 | 35731 ft | 425 kts | 187° |
| 2026-05-05 18:29 | 49.13124 | 8.82780 | 35092 ft | 425 kts | 187° |
| 2026-05-05 18:29 | 49.10196 | 8.82195 | 34467 ft | 423 kts | 186° |
| 2026-05-05 18:30 | 49.07284 | 8.81614 | 33856 ft | 422 kts | 186° |
| 2026-05-05 18:30 | 49.04427 | 8.81046 | 33159 ft | 422 kts | 186° |
| 2026-05-05 18:30 | 49.01503 | 8.80467 | 32450 ft | 424 kts | 186° |
| 2026-05-05 18:30 | 48.98557 | 8.79884 | 31776 ft | 429 kts | 186° |
| 2026-05-05 18:31 | 48.95581 | 8.79297 | 31124 ft | 433 kts | 187° |
| 2026-05-05 18:31 | 48.92583 | 8.78705 | 30473 ft | 434 kts | 187° |
| 2026-05-05 18:31 | 48.89588 | 8.78114 | 29820 ft | 433 kts | 187° |
| 2026-05-05 18:31 | 48.86614 | 8.77491 | 29089 ft | 430 kts | 189° |
| 2026-05-05 18:32 | 48.83691 | 8.76719 | 28512 ft | 423 kts | 190° |
| 2026-05-05 18:32 | 48.80824 | 8.75908 | 28004 ft | 415 kts | 190° |
| 2026-05-05 18:32 | 48.77990 | 8.75108 | 27492 ft | 413 kts | 190° |
| 2026-05-05 18:32 | 48.75170 | 8.74329 | 27003 ft | 412 kts | 190° |
| 2026-05-05 18:33 | 48.72359 | 8.73566 | 26507 ft | 409 kts | 190° |
| 2026-05-05 18:33 | 48.69575 | 8.72819 | 26021 ft | 403 kts | 190° |
| 2026-05-05 18:33 | 48.66829 | 8.72087 | 25542 ft | 400 kts | 190° |
| 2026-05-05 18:33 | 48.64089 | 8.71357 | 25076 ft | 399 kts | 189° |
| 2026-05-05 18:34 | 48.61363 | 8.70631 | 24612 ft | 397 kts | 189° |
| 2026-05-05 18:34 | 48.58628 | 8.69903 | 24137 ft | 403 kts | 189° |
| 2026-05-05 18:34 | 48.55835 | 8.69161 | 23672 ft | 408 kts | 189° |
| 2026-05-05 18:34 | 48.53047 | 8.68421 | 23155 ft | 404 kts | 189° |
| 2026-05-05 18:35 | 48.50295 | 8.67693 | 22615 ft | 398 kts | 190° |
| 2026-05-05 18:35 | 48.47581 | 8.66976 | 22083 ft | 395 kts | 190° |
| 2026-05-05 18:35 | 48.44978 | 8.66289 | 21570 ft | 393 kts | 190° |
| 2026-05-05 18:35 | 48.42291 | 8.65582 | 21054 ft | 391 kts | 190° |
| 2026-05-05 18:36 | 48.39619 | 8.64879 | 20547 ft | 388 kts | 191° |
| 2026-05-05 18:36 | 48.36971 | 8.64176 | 20045 ft | 385 kts | 191° |
| 2026-05-05 18:36 | 48.34352 | 8.63406 | 19552 ft | 382 kts | 192° |
| 2026-05-05 18:36 | 48.31792 | 8.62616 | 19079 ft | 380 kts | 193° |
| 2026-05-05 18:37 | 48.29205 | 8.61816 | 18599 ft | 378 kts | 193° |
| 2026-05-05 18:37 | 48.26638 | 8.61029 | 18141 ft | 375 kts | 193° |
| 2026-05-05 18:37 | 48.24097 | 8.60258 | 17905 ft | 371 kts | 193° |
| 2026-05-05 18:37 | 48.21564 | 8.59491 | 17843 ft | 373 kts | 193° |
| 2026-05-05 18:38 | 48.19008 | 8.58720 | 17853 ft | 374 kts | 193° |
| 2026-05-05 18:38 | 48.16454 | 8.57953 | 17830 ft | 373 kts | 193° |
| 2026-05-05 18:38 | 48.13921 | 8.57198 | 17552 ft | 370 kts | 193° |
| 2026-05-05 18:38 | 48.11428 | 8.56456 | 17374 ft | 359 kts | 193° |
| 2026-05-05 18:39 | 48.09320 | 8.55832 | 17238 ft | 342 kts | 193° |
| 2026-05-05 18:39 | 48.07725 | 8.55361 | 17092 ft | 328 kts | 193° |
| 2026-05-05 18:39 | 48.05531 | 8.54712 | 16901 ft | 309 kts | 193° |
| 2026-05-05 18:39 | 48.03457 | 8.54096 | 16402 ft | 301 kts | 194° |
| 2026-05-05 18:40 | 48.01412 | 8.53485 | 15778 ft | 298 kts | 194° |
| 2026-05-05 18:40 | 47.99388 | 8.52881 | 15163 ft | 296 kts | 194° |
| 2026-05-05 18:40 | 47.97403 | 8.52302 | 14592 ft | 293 kts | 191° |
| 2026-05-05 18:40 | 47.95363 | 8.52466 | 13963 ft | 299 kts | 167° |
| 2026-05-05 18:41 | 47.93513 | 8.53958 | 13514 ft | 308 kts | 145° |
| 2026-05-05 18:41 | 47.91893 | 8.56025 | 13102 ft | 306 kts | 143° |
| 2026-05-05 18:41 | 47.90300 | 8.58095 | 12909 ft | 302 kts | 143° |
| 2026-05-05 18:41 | 47.88724 | 8.60150 | 12869 ft | 305 kts | 143° |
| 2026-05-05 18:42 | 47.87125 | 8.62235 | 12870 ft | 306 kts | 143° |
| 2026-05-05 18:42 | 47.85525 | 8.64321 | 12878 ft | 305 kts | 143° |
| 2026-05-05 18:42 | 47.83926 | 8.66405 | 12881 ft | 305 kts | 143° |
| 2026-05-05 18:42 | 47.82332 | 8.68481 | 12871 ft | 301 kts | 143° |
| 2026-05-05 18:43 | 47.80791 | 8.70497 | 12783 ft | 289 kts | 143° |
| 2026-05-05 18:43 | 47.79323 | 8.72434 | 12683 ft | 277 kts | 143° |
| 2026-05-05 18:43 | 47.77907 | 8.74317 | 12497 ft | 268 kts | 143° |
| 2026-05-05 18:43 | 47.76525 | 8.76165 | 12162 ft | 266 kts | 143° |
| 2026-05-05 18:44 | 47.75160 | 8.77998 | 11751 ft | 264 kts | 143° |
| 2026-05-05 18:44 | 47.73804 | 8.79826 | 11311 ft | 263 kts | 143° |
| 2026-05-05 18:44 | 47.72461 | 8.81642 | 10982 ft | 258 kts | 143° |
| 2026-05-05 18:44 | 47.71042 | 8.83234 | 10892 ft | 253 kts | 162° |
| 2026-05-05 18:45 | 47.69393 | 8.83682 | 10885 ft | 242 kts | 190° |
| 2026-05-05 18:45 | 47.67855 | 8.82849 | 10882 ft | 234 kts | 219° |
| 2026-05-05 18:45 | 47.66866 | 8.80977 | 10881 ft | 234 kts | 248° |
| 2026-05-05 18:45 | 47.66595 | 8.78585 | 10878 ft | 235 kts | 263° |
| 2026-05-05 18:46 | 47.66498 | 8.76176 | 10643 ft | 233 kts | 263° |
| 2026-05-05 18:46 | 47.66407 | 8.73776 | 10143 ft | 232 kts | 263° |
| 2026-05-05 18:46 | 47.66316 | 8.71388 | 9590 ft | 231 kts | 263° |
| 2026-05-05 18:46 | 47.65968 | 8.69113 | 9013 ft | 227 kts | 239° |
| 2026-05-05 18:47 | 47.64876 | 8.67469 | 8564 ft | 227 kts | 210° |
| 2026-05-05 18:47 | 47.63400 | 8.66583 | 8137 ft | 229 kts | 203° |
| 2026-05-05 18:47 | 47.61959 | 8.65669 | 7926 ft | 224 kts | 214° |
| 2026-05-05 18:47 | 47.60690 | 8.64314 | 7885 ft | 224 kts | 228° |
| 2026-05-05 18:48 | 47.59978 | 8.62322 | 7891 ft | 224 kts | 258° |
| 2026-05-05 18:48 | 47.60012 | 8.60001 | 7887 ft | 228 kts | 273° |
| 2026-05-05 18:48 | 47.60202 | 8.57665 | 7888 ft | 228 kts | 273° |
| 2026-05-05 18:48 | 47.60394 | 8.55333 | 7882 ft | 228 kts | 273° |
| 2026-05-05 18:49 | 47.60601 | 8.53001 | 7885 ft | 229 kts | 278° |
| 2026-05-05 18:49 | 47.61335 | 8.50897 | 7886 ft | 239 kts | 309° |
| 2026-05-05 18:49 | 47.62762 | 8.49554 | 7891 ft | 251 kts | 332° |
| 2026-05-05 18:49 | 47.64397 | 8.48614 | 7884 ft | 251 kts | 333° |
| 2026-05-05 18:50 | 47.66012 | 8.47706 | 7886 ft | 251 kts | 333° |
| 2026-05-05 18:50 | 47.67655 | 8.46776 | 7878 ft | 252 kts | 333° |
| 2026-05-05 18:50 | 47.69277 | 8.45860 | 7681 ft | 248 kts | 333° |
| 2026-05-05 18:50 | 47.70888 | 8.44948 | 7318 ft | 248 kts | 333° |
| 2026-05-05 18:51 | 47.72446 | 8.43913 | 6932 ft | 241 kts | 318° |
| 2026-05-05 18:51 | 47.73222 | 8.42787 | 6652 ft | 231 kts | 298° |
| 2026-05-05 18:51 | 47.73737 | 8.40398 | 6201 ft | 219 kts | 264° |
| 2026-05-05 18:51 | 47.73289 | 8.38298 | 5775 ft | 215 kts | 233° |
| 2026-05-05 18:52 | 47.72120 | 8.36947 | 5340 ft | 218 kts | 202° |
| 2026-05-05 18:52 | 47.70629 | 8.36473 | 5058 ft | 222 kts | 193° |
| 2026-05-05 18:52 | 47.69067 | 8.36083 | 5001 ft | 231 kts | 193° |
| 2026-05-05 18:52 | 47.67486 | 8.35702 | 4970 ft | 227 kts | 193° |
| 2026-05-05 18:53 | 47.65954 | 8.35341 | 4860 ft | 217 kts | 193° |
| 2026-05-05 18:53 | 47.64510 | 8.35010 | 4726 ft | 202 kts | 193° |
| 2026-05-05 18:53 | 47.63150 | 8.34985 | 4614 ft | 193 kts | 175° |
| 2026-05-05 18:53 | 47.61900 | 8.35502 | 4484 ft | 185 kts | 161° |
| 2026-05-05 18:54 | 47.60797 | 8.36475 | 4420 ft | 198 kts | 148° |
| 2026-05-05 18:54 | 47.59738 | 8.37785 | 4326 ft | 199 kts | 142° |
| 2026-05-05 18:54 | 47.58738 | 8.39179 | 4202 ft | 201 kts | 141° |
| 2026-05-05 18:54 | 47.57709 | 8.40590 | 3971 ft | 198 kts | 142° |
| 2026-05-05 18:55 | 47.56714 | 8.41956 | 3727 ft | 198 kts | 141° |
| 2026-05-05 18:55 | 47.55718 | 8.43326 | 3470 ft | 192 kts | 141° |
| 2026-05-05 18:55 | 47.54759 | 8.44640 | 3214 ft | 176 kts | 141° |
| 2026-05-05 18:55 | 47.53910 | 8.45800 | 2976 ft | 156 kts | 140° |
| 2026-05-05 18:56 | 47.53149 | 8.46854 | 2796 ft | 154 kts | 141° |
| 2026-05-05 18:56 | 47.52362 | 8.47923 | 2580 ft | 151 kts | 141° |
| 2026-05-05 18:56 | 47.51608 | 8.48952 | 2373 ft | 147 kts | 140° |
| 2026-05-05 18:56 | 47.50854 | 8.49985 | 2146 ft | 148 kts | 139° |
| 2026-05-05 18:57 | 47.50111 | 8.51009 | 1938 ft | 145 kts | 138° |
| 2026-05-05 18:57 | 47.49379 | 8.52021 | 1726 ft | 143 kts | 139° |
| 2026-05-05 18:57 | 47.48622 | 8.53050 | 1540 ft | 147 kts | 139° |
| 2026-05-05 18:57 | 47.47900 | 8.54035 | 1395 ft | 134 kts | 140° |
| 2026-05-05 18:58 | 47.47352 | 8.54776 | 1399 ft | 78 kts | 136° |
| 2026-05-05 18:58 | 47.47052 | 8.55177 | 1396 ft | 51 kts | 136° |
| 2026-05-05 18:58 | 47.46846 | 8.55465 | 1401 ft | 28 kts | 137° |
| 2026-05-05 18:58 | 47.46721 | 8.55608 | 1397 ft | 18 kts | 150° |
| 2026-05-05 18:59 | 47.46598 | 8.55677 | 1396 ft | 19 kts | 165° |
| 2026-05-05 18:59 | 47.46507 | 8.55710 | 1405 ft | 9 kts | 166° |
| 2026-05-05 18:59 | 47.46450 | 8.55728 | 1402 ft | 9 kts | 168° |
| 2026-05-05 18:59 | 47.46422 | 8.55738 | 1395 ft | 0 kts | 157° |
| 2026-05-05 19:00 | 47.46421 | 8.55739 | 1402 ft | 1 kts | 157° |
| 2026-05-05 19:00 | 47.46417 | 8.55742 | 1400 ft | 2 kts | 157° |
| 2026-05-05 19:01 | 47.46372 | 8.55776 | 1406 ft | 11 kts | 143° |
| 2026-05-05 19:01 | 47.46310 | 8.55855 | 1400 ft | 9 kts | 138° |
| 2026-05-05 19:01 | 47.46266 | 8.55912 | 1400 ft | 7 kts | 139° |
| 2026-05-05 19:01 | 47.46224 | 8.55965 | 1405 ft | 6 kts | 139° |
| 2026-05-05 19:02 | 47.46215 | 8.55977 | 1400 ft | 5 kts | 139° |
| 2026-05-05 19:02 | 47.46176 | 8.56027 | 1400 ft | 1 kts | 138° |
| 2026-05-05 19:02 | 47.46136 | 8.56087 | 1405 ft | 12 kts | 135° |
| 2026-05-05 19:02 | 47.46080 | 8.56169 | 1408 ft | 0 kts | 134° |
| 2026-05-05 19:05 | 47.46071 | 8.56183 | 1399 ft | 4 kts | 134° |
| 2026-05-05 19:05 | 47.46040 | 8.56229 | 1404 ft | 7 kts | 137° |
| 2026-05-05 19:06 | 47.46010 | 8.56253 | 1404 ft | 8 kts | 181° |
| 2026-05-05 19:06 | 47.46003 | 8.56209 | 1407 ft | 7 kts | 277° |
| 2026-05-05 19:06 | 47.46012 | 8.56089 | 1402 ft | 12 kts | 276° |
| 2026-05-05 19:06 | 47.46009 | 8.56001 | 1402 ft | 6 kts | 249° |
| 2026-05-05 19:07 | 47.45987 | 8.55978 | 1402 ft | 0 kts | 203° |
| 2026-05-05 19:08 | 47.45964 | 8.55967 | 1405 ft | 7 kts | 198° |
| 2026-05-05 19:08 | 47.45901 | 8.55934 | 1403 ft | 11 kts | 201° |
| 2026-05-05 19:08 | 47.45854 | 8.55908 | 1400 ft | 9 kts | 199° |
| 2026-05-05 19:09 | 47.45821 | 8.55891 | 1401 ft | 0 kts | 200° |
| 2026-05-05 19:11 | 47.45806 | 8.55884 | 1399 ft | 7 kts | 194° |
| 2026-05-05 19:11 | 47.45740 | 8.55871 | 1401 ft | 11 kts | 184° |
| 2026-05-05 19:11 | 47.45671 | 8.55859 | 1398 ft | 8 kts | 196° |
| 2026-05-05 19:12 | 47.45643 | 8.55777 | 1403 ft | 11 kts | 269° |
| 2026-05-05 19:12 | 47.45650 | 8.55663 | 1399 ft | 12 kts | 275° |
| 2026-05-05 19:12 | 47.45660 | 8.55523 | 1397 ft | 15 kts | 278° |
| 2026-05-05 19:12 | 47.45672 | 8.55388 | 1397 ft | 8 kts | 269° |
| 2026-05-05 19:13 | 47.45631 | 8.55338 | 1397 ft | 9 kts | 177° |
| 2026-05-05 19:13 | 47.45613 | 8.55346 | 1399 ft | 0 kts | 157° |
| 2026-05-05 19:13 | 47.45612 | 8.55347 | 1400 ft | 2 kts | 157° |
| 2026-05-05 19:14 | 47.45567 | 8.55377 | 1399 ft | 11 kts | 155° |
| 2026-05-05 19:14 | 47.45481 | 8.55436 | 1406 ft | 15 kts | 155° |
| 2026-05-05 19:14 | 47.45385 | 8.55503 | 1399 ft | 13 kts | 155° |
| 2026-05-05 19:14 | 47.45303 | 8.55558 | 1403 ft | 10 kts | 153° |
| 2026-05-05 19:15 | 47.45289 | 8.55636 | 1404 ft | 9 kts | 27° |
| 2026-05-05 19:15 | 47.45341 | 8.55645 | 1399 ft | 0 kts | 7° |
| 2026-05-05 19:15 | 47.45350 | 8.55646 | 1401 ft | 0 kts | 6° |